Time;durP1;ratioP1;P1;durP2;ratioP2;P2;SDS_P1;SDS_P2;PMS_P1;PMS_P2;Temp;Humidity;BMP_temperature;BMP_pressure;BME280_temperature;BME280_humidity;BME280_pressure;Samples;Min_cycle;Max_cycle;Signal;HPM_P1;HPM_P2
2023/06/22 00:01:15;;;;;;;30.60;8.25;;;26.50;79.20;;;;;;5024783;28;20030;-54
2023/06/22 00:03:40;;;;;;;26.98;8.07;;;26.50;79.30;;;;;;5024798;28;20537;-54
2023/06/22 00:06:06;;;;;;;25.58;8.18;;;26.50;79.40;;;;;;5026353;28;20029;-54
2023/06/22 00:08:31;;;;;;;24.60;8.20;;;26.50;79.50;;;;;;5026236;28;20057;-53
2023/06/22 00:10:57;;;;;;;26.60;7.97;;;26.50;79.20;;;;;;5024167;28;20022;-54
2023/06/22 00:13:22;;;;;;;25.50;7.88;;;26.50;79.20;;;;;;5026400;28;20065;-54
2023/06/22 00:15:48;;;;;;;28.60;8.38;;;26.50;79.20;;;;;;5024838;28;20048;-53
2023/06/22 00:18:13;;;;;;;23.13;8.18;;;26.50;79.20;;;;;;5026144;28;20017;-54
2023/06/22 00:20:39;;;;;;;18.58;7.38;;;26.50;79.30;;;;;;5025281;28;20026;-54
2023/06/22 00:23:09;;;;;;;25.08;7.63;;;26.50;79.30;;;;;;5024339;28;20112;-54
2023/06/22 00:25:35;;;;;;;21.45;7.47;;;26.40;79.50;;;;;;5024382;28;20034;-53
2023/06/22 00:28:02;;;;;;;28.00;7.93;;;26.40;79.50;;;;;;5024289;28;20029;-54
2023/06/22 00:30:27;;;;;;;30.13;7.45;;;26.30;79.60;;;;;;5024286;28;20093;-54
2023/06/22 00:32:53;;;;;;;15.02;7.25;;;26.30;79.60;;;;;;5024399;28;20072;-54
2023/06/22 00:35:19;;;;;;;27.42;7.97;;;26.30;79.50;;;;;;5025493;28;20033;-54
2023/06/22 00:37:44;;;;;;;24.75;8.48;;;26.30;79.50;;;;;;5024302;28;20406;-54
2023/06/22 00:40:11;;;;;;;23.73;8.35;;;26.30;79.50;;;;;;5025778;28;20018;-54
2023/06/22 00:42:38;;;;;;;19.90;7.63;;;26.20;79.40;;;;;;5025656;28;20068;-53
2023/06/22 00:45:04;;;;;;;26.05;7.53;;;26.20;79.40;;;;;;5025089;28;20029;-54
2023/06/22 00:47:30;;;;;;;20.42;7.65;;;26.20;79.50;;;;;;5025445;28;20033;-54
2023/06/22 00:49:55;;;;;;;19.55;7.30;;;26.20;79.50;;;;;;5024121;28;20095;-54
2023/06/22 00:52:21;;;;;;;18.00;6.57;;;26.20;79.60;;;;;;5024117;28;20061;-54
2023/06/22 00:54:51;;;;;;;20.95;6.50;;;26.20;80.00;;;;;;5023968;28;20113;-54
2023/06/22 00:57:16;;;;;;;19.73;6.60;;;26.20;79.70;;;;;;5024006;28;20018;-54
2023/06/22 00:59:45;;;;;;;22.73;6.88;;;26.20;79.80;;;;;;5025238;28;20048;-54
2023/06/22 01:02:11;;;;;;;21.38;6.57;;;26.10;79.70;;;;;;5023821;28;20030;-54
2023/06/22 01:04:38;;;;;;;21.00;7.25;;;26.10;79.90;;;;;;5025184;28;20129;-53
2023/06/22 01:07:22;;;;;;;12.60;5.88;;;26.10;79.80;;;;;;5023757;28;20044;-54
2023/06/22 01:09:59;;;;;;;16.45;6.00;;;26.10;79.90;;;;;;5023905;28;20041;-54
2023/06/22 01:12:25;;;;;;;17.60;6.63;;;26.00;80.00;;;;;;5023612;28;20030;-54
2023/06/22 01:14:58;;;;;;;16.00;6.63;;;26.00;80.00;;;;;;5023666;28;20038;-54
2023/06/22 01:17:23;;;;;;;16.27;6.28;;;26.00;80.10;;;;;;5023717;28;20022;-53
2023/06/22 01:19:54;;;;;;;19.17;6.55;;;26.00;80.20;;;;;;5023682;28;20446;-54
2023/06/22 01:22:20;;;;;;;18.38;6.53;;;26.00;80.20;;;;;;5023861;28;20030;-54
2023/06/22 01:25:13;;;;;;;17.40;6.38;;;26.00;80.40;;;;;;5023565;28;20498;-54
2023/06/22 01:28:00;;;;;;;15.10;6.93;;;26.00;80.30;;;;;;5024953;28;20030;-54
2023/06/22 01:30:26;;;;;;;18.63;6.40;;;25.90;80.20;;;;;;5024946;28;20096;-53
2023/06/22 01:32:53;;;;;;;12.68;6.18;;;25.90;80.20;;;;;;5026384;28;20026;-54
2023/06/22 01:35:19;;;;;;;14.32;6.32;;;25.90;80.20;;;;;;5027595;28;20042;-54
2023/06/22 01:37:44;;;;;;;11.63;5.75;;;25.90;80.30;;;;;;5027653;28;20033;-54
2023/06/22 01:40:10;;;;;;;16.25;6.20;;;25.90;80.40;;;;;;5027528;28;20018;-54
2023/06/22 01:42:36;;;;;;;11.02;6.25;;;25.80;80.40;;;;;;5027332;28;20044;-54
2023/06/22 01:45:02;;;;;;;16.92;6.35;;;25.80;80.60;;;;;;5027509;28;20029;-54
2023/06/22 01:47:28;;;;;;;14.18;5.93;;;25.80;80.70;;;;;;5027308;28;20065;-54
2023/06/22 01:49:53;;;;;;;17.48;6.68;;;25.80;80.90;;;;;;5027337;28;20046;-54
2023/06/22 01:52:21;;;;;;;14.15;6.90;;;25.80;80.90;;;;;;5027257;28;20042;-54
2023/06/22 01:54:46;;;;;;;18.17;7.40;;;25.70;80.80;;;;;;5028688;28;20423;-54
2023/06/22 01:57:12;;;;;;;12.68;7.28;;;25.80;80.90;;;;;;5027089;28;20040;-54
2023/06/22 01:59:43;;;;;;;11.60;6.65;;;25.70;80.90;;;;;;5027075;28;20056;-54
2023/06/22 02:02:10;;;;;;;13.27;6.88;;;25.70;81.00;;;;;;5027292;28;20045;-54
2023/06/22 02:04:46;;;;;;;18.85;7.25;;;25.70;81.00;;;;;;5027017;28;20355;-54
2023/06/22 02:07:14;;;;;;;12.95;6.93;;;25.70;80.90;;;;;;5027128;28;20042;-54
2023/06/22 02:09:40;;;;;;;15.90;7.50;;;25.70;81.00;;;;;;5026984;28;20076;-54
2023/06/22 02:12:06;;;;;;;16.80;6.70;;;25.70;80.90;;;;;;5026766;28;20034;-54
2023/06/22 02:14:31;;;;;;;20.42;6.80;;;25.70;80.90;;;;;;5026483;28;20034;-54
2023/06/22 02:16:58;;;;;;;14.57;6.63;;;25.70;81.00;;;;;;5026809;28;20022;-54
2023/06/22 02:19:24;;;;;;;11.30;6.40;;;25.60;80.90;;;;;;5026843;28;20036;-54
2023/06/22 02:21:50;;;;;;;17.52;7.50;;;25.60;80.80;;;;;;5026778;28;20026;-53
2023/06/22 02:24:16;;;;;;;20.10;8.43;;;25.60;81.00;;;;;;5026659;28;20037;-54
2023/06/22 02:26:42;;;;;;;19.27;8.23;;;25.60;81.30;;;;;;5026594;28;20041;-54
2023/06/22 02:29:08;;;;;;;17.17;7.63;;;25.60;81.30;;;;;;5026586;28;20109;-54
2023/06/22 02:31:33;;;;;;;19.52;8.43;;;25.60;81.40;;;;;;5026643;28;20109;-54
2023/06/22 02:33:59;;;;;;;23.45;8.77;;;25.50;81.50;;;;;;5026264;28;20054;-54
2023/06/22 02:36:26;;;;;;;18.95;9.02;;;25.50;81.60;;;;;;5026435;28;20416;-54
2023/06/22 02:38:52;;;;;;;16.85;8.52;;;25.50;81.80;;;;;;5026498;28;20021;-54
2023/06/22 02:41:20;;;;;;;21.40;9.48;;;25.50;81.80;;;;;;5026411;28;20026;-53
2023/06/22 02:43:46;;;;;;;22.33;7.70;;;25.50;81.80;;;;;;5025463;28;20030;-54
2023/06/22 02:46:12;;;;;;;16.15;8.23;;;25.40;81.90;;;;;;5026050;28;20036;-54
2023/06/22 02:48:39;;;;;;;20.30;9.60;;;25.50;82.00;;;;;;5026119;28;20038;-54
2023/06/22 02:51:04;;;;;;;16.27;9.25;;;25.40;82.00;;;;;;5027744;28;20041;-54
2023/06/22 02:53:30;;;;;;;25.48;10.38;;;25.40;82.00;;;;;;5027490;28;20037;-54
2023/06/22 02:55:55;;;;;;;19.90;11.10;;;25.40;82.00;;;;;;5027600;28;20037;-54
2023/06/22 02:58:21;;;;;;;18.98;9.77;;;25.40;81.90;;;;;;5026082;28;20029;-54
2023/06/22 03:00:47;;;;;;;18.08;9.85;;;25.40;81.90;;;;;;5027377;28;20026;-54
2023/06/22 03:03:12;;;;;;;24.83;10.32;;;25.40;82.10;;;;;;5027266;28;20034;-54
2023/06/22 03:05:40;;;;;;;19.33;9.70;;;25.40;83.00;;;;;;5025902;28;20037;-54
2023/06/22 03:08:05;;;;;;;17.23;9.18;;;25.40;82.80;;;;;;5027230;28;20119;-54
2023/06/22 03:10:31;;;;;;;20.98;9.27;;;25.30;82.60;;;;;;5025976;28;20034;-54
2023/06/22 03:12:56;;;;;;;18.98;8.93;;;25.30;82.50;;;;;;5027129;28;20041;-54
2023/06/22 03:15:24;;;;;;;24.88;9.60;;;25.30;82.50;;;;;;5025697;28;20030;-53
2023/06/22 03:17:50;;;;;;;16.15;8.43;;;25.30;82.60;;;;;;5027166;28;20021;-54
2023/06/22 03:20:15;;;;;;;23.08;9.25;;;25.30;82.60;;;;;;5026976;28;20033;-54
2023/06/22 03:22:41;;;;;;;19.10;10.50;;;25.30;82.60;;;;;;5025560;28;20030;-54
2023/06/22 03:25:13;;;;;;;18.63;10.35;;;25.20;82.50;;;;;;5025635;28;20065;-54
2023/06/22 03:27:39;;;;;;;19.77;9.55;;;25.30;82.50;;;;;;5025661;28;20493;-54
2023/06/22 03:30:06;;;;;;;19.65;9.50;;;25.20;82.40;;;;;;5025381;28;20053;-53
2023/06/22 03:32:32;;;;;;;20.38;9.18;;;25.20;82.30;;;;;;5025314;28;20121;-53
2023/06/22 03:34:58;;;;;;;21.60;9.48;;;25.20;82.40;;;;;;5026807;28;20043;-54
2023/06/22 03:37:25;;;;;;;20.02;10.23;;;25.20;82.50;;;;;;5025511;28;20085;-54
2023/06/22 03:39:51;;;;;;;17.73;9.80;;;25.20;82.70;;;;;;5025313;28;20018;-54
2023/06/22 03:42:17;;;;;;;63.58;14.27;;;25.20;82.80;;;;;;5026661;28;20029;-54
2023/06/22 03:44:42;;;;;;;142.85;20.98;;;25.10;83.00;;;;;;5026410;28;20300;-54
2023/06/22 03:47:08;;;;;;;97.68;18.38;;;25.10;83.00;;;;;;5008814;28;20095;-54
2023/06/22 03:49:34;;;;;;;62.95;16.75;;;25.10;83.10;;;;;;5026323;28;20085;-53
2023/06/22 03:52:01;;;;;;;59.83;13.50;;;25.10;83.10;;;;;;5026485;28;20034;-53
2023/06/22 03:54:28;;;;;;;41.55;11.88;;;25.10;83.10;;;;;;5024917;28;20033;-54
2023/06/22 03:56:53;;;;;;;57.55;13.13;;;25.10;83.30;;;;;;5026358;28;20094;-53
2023/06/22 03:59:19;;;;;;;48.55;12.80;;;25.10;83.40;;;;;;5024887;28;20022;-54
2023/06/22 04:01:44;;;;;;;48.63;13.00;;;25.10;83.50;;;;;;5024818;28;20033;-54
2023/06/22 04:04:10;;;;;;;59.15;12.40;;;25.00;83.40;;;;;;5024618;28;20363;-54
2023/06/22 04:06:35;;;;;;;33.78;11.45;;;25.00;83.50;;;;;;5024813;28;20038;-54
2023/06/22 04:09:01;;;;;;;36.60;11.25;;;25.00;83.60;;;;;;5025954;28;20029;-54
2023/06/22 04:11:26;;;;;;;28.40;10.10;;;25.00;83.60;;;;;;5024812;28;20365;-54
2023/06/22 04:13:53;;;;;;;37.28;11.63;;;25.00;83.50;;;;;;5024643;28;20482;-54
2023/06/22 04:16:18;;;;;;;37.17;10.48;;;25.00;83.40;;;;;;5008367;28;20414;-54
2023/06/22 04:18:44;;;;;;;39.17;10.80;;;25.00;83.20;;;;;;5024690;28;20030;-54
2023/06/22 04:21:10;;;;;;;39.22;11.23;;;25.00;83.50;;;;;;5024436;28;20030;-54
2023/06/22 04:23:36;;;;;;;29.05;9.55;;;24.90;83.60;;;;;;5024361;28;20041;-54
2023/06/22 04:26:01;;;;;;;29.92;9.88;;;24.90;83.70;;;;;;5024812;28;20034;-53
2023/06/22 04:28:27;;;;;;;32.75;9.75;;;24.90;83.50;;;;;;5024684;28;20034;-54
2023/06/22 04:30:52;;;;;;;25.92;9.18;;;24.90;83.50;;;;;;5024790;28;20112;-53
2023/06/22 04:33:18;;;;;;;28.13;9.77;;;24.90;83.60;;;;;;5026558;28;20049;-53
2023/06/22 04:35:46;;;;;;;36.17;9.93;;;24.90;83.50;;;;;;5025317;28;20378;-54
2023/06/22 04:38:13;;;;;;;28.08;9.77;;;24.90;83.80;;;;;;5025649;28;20134;-54
2023/06/22 04:40:39;;;;;;;31.35;10.00;;;24.90;83.90;;;;;;5025371;28;20040;-54
2023/06/22 04:43:06;;;;;;;37.92;9.82;;;24.90;84.00;;;;;;5024154;28;20033;-53
2023/06/22 04:45:37;;;;;;;37.28;10.23;;;24.90;84.10;;;;;;5025463;28;20038;-54
2023/06/22 04:48:03;;;;;;;80.25;15.63;;;24.90;84.10;;;;;;5024237;28;20101;-54
2023/06/22 04:50:29;;;;;;;44.67;11.10;;;24.90;84.00;;;;;;5023899;28;20072;-54
2023/06/22 04:52:54;;;;;;;37.70;10.23;;;24.80;84.00;;;;;;5025232;28;20045;-54
2023/06/22 04:55:20;;;;;;;40.13;10.52;;;24.90;84.10;;;;;;5025098;28;20030;-54
2023/06/22 04:57:49;;;;;;;41.97;11.18;;;24.90;84.20;;;;;;5023542;28;20037;-53
2023/06/22 05:00:19;;;;;;;53.42;11.00;;;24.80;84.10;;;;;;5023904;28;20117;-54
2023/06/22 05:02:45;;;;;;;62.58;12.45;;;24.90;84.10;;;;;;5024996;28;20054;-54
2023/06/22 05:05:13;;;;;;;48.65;11.82;;;24.90;84.20;;;;;;5023753;28;20065;-54
2023/06/22 05:07:48;;;;;;;52.22;11.80;;;24.80;84.30;;;;;;5023139;28;20121;-54
2023/06/22 05:10:13;;;;;;;77.70;13.38;;;24.80;84.40;;;;;;5023826;28;20378;-53
2023/06/22 05:12:39;;;;;;;79.90;14.75;;;24.80;84.50;;;;;;5024993;28;20034;-54
2023/06/22 05:15:06;;;;;;;73.60;14.18;;;24.80;84.50;;;;;;5023541;28;20030;-54
2023/06/22 05:17:32;;;;;;;68.68;13.70;;;24.80;84.50;;;;;;5040045;28;20026;-54
2023/06/22 05:19:57;;;;;;;58.70;12.68;;;24.80;84.50;;;;;;5023561;28;20470;-54
2023/06/22 05:22:23;;;;;;;59.28;12.07;;;24.80;84.50;;;;;;5023588;28;20034;-54
2023/06/22 05:24:49;;;;;;;69.03;13.02;;;24.80;84.60;;;;;;5023352;28;20080;-54
2023/06/22 05:27:14;;;;;;;62.15;11.73;;;24.80;84.60;;;;;;5024962;28;20101;-54
2023/06/22 05:29:40;;;;;;;79.72;13.02;;;24.80;84.60;;;;;;5023367;28;20028;-54
2023/06/22 05:32:06;;;;;;;68.43;13.38;;;24.80;84.60;;;;;;5024895;28;20097;-54
2023/06/22 05:34:32;;;;;;;63.30;12.32;;;24.80;84.90;;;;;;5023393;28;20029;-54
2023/06/22 05:36:59;;;;;;;69.32;12.52;;;24.80;84.90;;;;;;5023523;28;20030;-54
2023/06/22 05:39:24;;;;;;;74.20;14.52;;;24.80;84.90;;;;;;5023239;28;20045;-54
2023/06/22 05:41:50;;;;;;;66.45;13.65;;;24.70;84.90;;;;;;5023478;28;20046;-54
2023/06/22 05:44:15;;;;;;;83.68;14.13;;;24.80;84.90;;;;;;5024686;28;20069;-53
2023/06/22 05:46:46;;;;;;;66.90;14.02;;;24.70;84.70;;;;;;5023225;28;20045;-54
2023/06/22 05:49:12;;;;;;;59.35;12.80;;;24.80;84.90;;;;;;5023209;28;20030;-54
2023/06/22 05:51:38;;;;;;;63.53;12.15;;;24.80;85.10;;;;;;5023176;28;20064;-54
2023/06/22 05:54:03;;;;;;;45.08;11.15;;;24.80;85.10;;;;;;5022909;28;20036;-54
2023/06/22 05:56:29;;;;;;;57.25;10.98;;;24.70;85.20;;;;;;5023291;28;20050;-54
2023/06/22 05:58:54;;;;;;;48.17;10.63;;;24.80;85.40;;;;;;5023156;28;20030;-54
2023/06/22 06:01:20;;;;;;;59.67;11.40;;;24.80;85.50;;;;;;5024266;28;20082;-54
2023/06/22 06:03:46;;;;;;;39.08;10.68;;;24.70;85.60;;;;;;5024329;28;20088;-54
2023/06/22 06:06:11;;;;;;;51.85;11.93;;;24.80;84.70;;;;;;5023021;28;20044;-54
2023/06/22 06:08:38;;;;;;;51.85;10.43;;;24.80;84.50;;;;;;5023063;28;20030;-54
2023/06/22 06:11:05;;;;;;;45.20;10.75;;;24.80;84.50;;;;;;5030486;28;20048;-54
2023/06/22 06:13:30;;;;;;;51.42;11.02;;;24.80;84.70;;;;;;5026437;28;20041;-54
2023/06/22 06:15:57;;;;;;;51.95;10.45;;;24.80;84.80;;;;;;5044234;28;20113;-54
2023/06/22 06:18:22;;;;;;;43.75;10.10;;;24.80;85.00;;;;;;5043822;28;20413;-54
2023/06/22 06:20:48;;;;;;;39.80;10.30;;;24.80;85.10;;;;;;5048138;28;20021;-54
2023/06/22 06:23:13;;;;;;;44.60;10.77;;;24.80;85.20;;;;;;5046193;28;20033;-54
2023/06/22 06:25:39;;;;;;;38.47;10.57;;;24.80;85.30;;;;;;5045701;28;20044;-54
2023/06/22 06:28:04;;;;;;;45.28;9.95;;;24.80;85.90;;;;;;5045617;28;20490;-54
2023/06/22 06:30:30;;;;;;;45.97;9.18;;;24.80;86.30;;;;;;5045482;28;20060;-54
2023/06/22 06:32:56;;;;;;;40.92;9.57;;;24.80;86.00;;;;;;5043973;28;20053;-54
2023/06/22 06:35:21;;;;;;;42.72;9.75;;;24.80;85.90;;;;;;5043954;28;20116;-54
2023/06/22 06:37:48;;;;;;;55.10;10.85;;;24.80;86.60;;;;;;5046529;28;20060;-54
2023/06/22 06:40:14;;;;;;;64.13;11.43;;;24.80;85.80;;;;;;5046025;28;20036;-53
2023/06/22 06:42:41;;;;;;;66.80;11.45;;;24.80;87.10;;;;;;5045930;28;20053;-54
2023/06/22 06:45:16;;;;;;;63.17;13.20;;;24.80;87.10;;;;;;5029401;28;20036;-54
2023/06/22 06:47:41;;;;;;;53.90;10.90;;;24.80;87.00;;;;;;5029680;28;20081;-54
2023/06/22 06:50:07;;;;;;;42.65;10.10;;;24.90;86.80;;;;;;5045987;28;20144;-54
2023/06/22 06:52:33;;;;;;;57.70;12.15;;;24.90;86.50;;;;;;5039754;28;20437;-54
2023/06/22 06:54:59;;;;;;;64.30;11.63;;;24.90;86.40;;;;;;5041619;28;20429;-54
2023/06/22 06:57:28;;;;;;;51.75;10.55;;;24.90;86.40;;;;;;5045795;28;20032;-54
2023/06/22 06:59:57;;;;;;;64.00;10.68;;;24.90;86.30;;;;;;5047199;28;20101;-54
2023/06/22 07:02:23;;;;;;;44.55;10.02;;;24.90;86.40;;;;;;5046007;28;20036;-54
2023/06/22 07:04:48;;;;;;;51.33;10.45;;;25.00;86.80;;;;;;5046955;28;20057;-53
2023/06/22 07:07:14;;;;;;;51.72;9.73;;;25.00;86.50;;;;;;5045607;28;20034;-54
2023/06/22 07:09:40;;;;;;;50.58;10.18;;;25.00;86.60;;;;;;5045320;28;20028;-54
2023/06/22 07:12:06;;;;;;;41.30;9.98;;;25.00;86.80;;;;;;5044851;28;20401;-54
2023/06/22 07:14:31;;;;;;;51.33;10.10;;;25.10;86.60;;;;;;5044923;28;20086;-54
2023/06/22 07:16:58;;;;;;;52.08;10.18;;;25.10;86.70;;;;;;5046469;28;20021;-53
2023/06/22 07:19:27;;;;;;;37.88;9.60;;;25.10;87.00;;;;;;5044878;28;20034;-54
2023/06/22 07:21:53;;;;;;;48.22;10.13;;;25.10;87.30;;;;;;5045243;28;20136;-54
2023/06/22 07:24:22;;;;;;;45.92;10.20;;;25.10;87.30;;;;;;5028595;28;20474;-54
2023/06/22 07:26:49;;;;;;;46.88;8.90;;;25.20;87.90;;;;;;5045072;28;20029;-54
2023/06/22 07:29:16;;;;;;;43.65;9.68;;;25.20;87.40;;;;;;5046372;28;20037;-54
2023/06/22 07:31:42;;;;;;;29.08;8.45;;;25.20;88.00;;;;;;5044442;28;20044;-54
2023/06/22 07:34:07;;;;;;;43.63;7.90;;;25.20;88.50;;;;;;5044703;28;20029;-54
2023/06/22 07:36:35;;;;;;;36.88;9.63;;;25.20;88.60;;;;;;5045137;28;20026;-54
2023/06/22 07:39:02;;;;;;;39.53;8.00;;;25.20;89.10;;;;;;5046509;28;20017;-54
2023/06/22 07:41:27;;;;;;;49.75;8.35;;;25.20;89.00;;;;;;5045133;28;20401;-54
2023/06/22 07:43:53;;;;;;;28.23;8.25;;;25.20;88.80;;;;;;5045906;28;20079;-54
2023/06/22 07:46:18;;;;;;;40.17;9.07;;;25.20;88.80;;;;;;5045182;28;20036;-54
2023/06/22 07:48:44;;;;;;;31.05;7.80;;;25.20;89.70;;;;;;5044130;28;20093;-54
2023/06/22 07:51:13;;;;;;;38.15;8.38;;;25.20;90.10;;;;;;5045291;28;20044;-54
2023/06/22 07:53:40;;;;;;;33.78;8.43;;;25.30;90.00;;;;;;5044600;28;20060;-53
2023/06/22 07:56:07;;;;;;;35.90;8.23;;;25.30;89.10;;;;;;5043163;28;20056;-54
2023/06/22 07:58:32;;;;;;;27.05;7.50;;;25.20;89.10;;;;;;5042116;28;20029;-54
2023/06/22 08:00:58;;;;;;;35.25;8.02;;;25.20;89.10;;;;;;5042833;28;20037;-54
2023/06/22 08:03:24;;;;;;;29.27;9.05;;;25.20;88.70;;;;;;5044205;28;20053;-54
2023/06/22 08:05:49;;;;;;;72.43;11.40;;;25.30;88.90;;;;;;5043588;28;20109;-54
2023/06/22 08:08:15;;;;;;;61.70;11.93;;;25.30;89.60;;;;;;5045006;28;20041;-54
2023/06/22 08:10:42;;;;;;;64.30;12.00;;;25.30;89.60;;;;;;5027871;28;20037;-54
2023/06/22 08:13:07;;;;;;;39.38;9.68;;;25.30;89.60;;;;;;5045566;28;20053;-54
2023/06/22 08:15:33;;;;;;;30.27;8.18;;;25.30;89.40;;;;;;5045723;28;20025;-54
2023/06/22 08:18:00;;;;;;;37.60;8.52;;;25.30;88.20;;;;;;5045997;28;20088;-54
2023/06/22 08:20:25;;;;;;;30.13;8.05;;;25.40;88.00;;;;;;5045983;28;20072;-54
2023/06/22 08:22:51;;;;;;;42.10;8.65;;;25.40;88.20;;;;;;5044520;28;20052;-54
2023/06/22 08:25:17;;;;;;;42.08;9.25;;;25.40;88.60;;;;;;5042067;28;20034;-53
2023/06/22 08:27:46;;;;;;;45.58;9.65;;;25.40;88.50;;;;;;5043914;28;20033;-54
2023/06/22 08:30:12;;;;;;;62.17;10.98;;;25.50;88.90;;;;;;5043432;28;20462;-54
2023/06/22 08:32:37;;;;;;;51.03;10.15;;;25.50;88.50;;;;;;5044413;28;20045;-54
2023/06/22 08:35:03;;;;;;;45.70;10.00;;;25.50;89.20;;;;;;5043971;28;20033;-54
2023/06/22 08:37:35;;;;;;;41.60;10.05;;;25.60;88.90;;;;;;5042766;28;20021;-54
2023/06/22 08:40:01;;;;;;;42.35;9.80;;;25.60;88.60;;;;;;5041490;28;20040;-54
2023/06/22 08:42:27;;;;;;;33.15;8.40;;;25.60;88.30;;;;;;5038795;28;20469;-54
2023/06/22 08:44:53;;;;;;;33.40;8.95;;;25.60;88.10;;;;;;5029638;28;20025;-54
2023/06/22 08:47:19;;;;;;;38.80;8.45;;;25.60;88.10;;;;;;5027344;28;20505;-54
2023/06/22 08:49:44;;;;;;;23.33;7.50;;;25.60;88.30;;;;;;5026056;28;20085;-54
2023/06/22 08:52:10;;;;;;;24.15;8.40;;;25.70;88.40;;;;;;5036319;28;20056;-54
2023/06/22 08:54:35;;;;;;;42.92;9.30;;;25.70;88.20;;;;;;5043150;28;20040;-54
2023/06/22 08:57:02;;;;;;;35.70;9.05;;;25.70;88.40;;;;;;5042656;28;20112;-54
2023/06/22 08:59:28;;;;;;;50.80;10.32;;;25.70;88.20;;;;;;5042583;28;20033;-54
2023/06/22 09:01:53;;;;;;;39.58;9.07;;;25.80;88.40;;;;;;5037378;28;20029;-54
2023/06/22 09:04:21;;;;;;;39.80;9.70;;;25.80;88.10;;;;;;5028399;28;20026;-54
2023/06/22 09:06:47;;;;;;;40.60;9.75;;;25.80;88.10;;;;;;5038533;28;20112;-54
2023/06/22 09:09:14;;;;;;;48.67;11.38;;;25.90;88.20;;;;;;5040338;28;20030;-54
2023/06/22 09:11:40;;;;;;;51.13;10.27;;;26.00;88.20;;;;;;5043404;28;20041;-54
2023/06/22 09:14:05;;;;;;;51.03;10.80;;;26.00;88.00;;;;;;5032820;28;20095;-54
2023/06/22 09:16:31;;;;;;;34.00;9.60;;;26.00;87.80;;;;;;5023123;28;20105;-54
2023/06/22 09:18:56;;;;;;;49.45;9.13;;;26.10;87.50;;;;;;5041076;28;20466;-54
2023/06/22 09:21:22;;;;;;;54.13;10.98;;;26.10;88.10;;;;;;5037127;28;20029;-54
2023/06/22 09:23:51;;;;;;;52.72;11.07;;;26.20;87.20;;;;;;5039750;28;20458;-54
2023/06/22 09:26:17;;;;;;;26.58;8.43;;;26.20;87.00;;;;;;5040030;28;20037;-53
2023/06/22 09:28:42;;;;;;;42.28;9.95;;;26.20;86.70;;;;;;5036423;28;20106;-53
2023/06/22 09:31:08;;;;;;;44.75;9.23;;;26.30;86.70;;;;;;5018899;28;20053;-54
2023/06/22 09:33:35;;;;;;;42.50;8.13;;;26.30;86.80;;;;;;5023900;28;20030;-54
2023/06/22 09:36:00;;;;;;;43.78;8.55;;;26.30;86.60;;;;;;5037727;28;20096;-53
2023/06/22 09:38:26;;;;;;;42.03;9.25;;;26.40;87.10;;;;;;5043348;28;20036;-54
2023/06/22 09:40:51;;;;;;;39.78;9.20;;;26.40;86.20;;;;;;5057688;28;20112;-54
2023/06/22 09:43:17;;;;;;;51.83;11.48;;;26.50;86.10;;;;;;5061596;28;20036;-53
2023/06/22 09:45:42;;;;;;;53.88;10.95;;;26.50;86.10;;;;;;5026513;28;20075;-54
2023/06/22 09:48:09;;;;;;;70.88;11.70;;;26.60;85.90;;;;;;5043730;28;20097;-54
2023/06/22 09:50:35;;;;;;;61.03;12.00;;;26.60;85.70;;;;;;5041872;28;20049;-54
2023/06/22 09:53:00;;;;;;;52.03;10.57;;;26.60;85.60;;;;;;5035069;28;20048;-54
2023/06/22 09:55:26;;;;;;;60.38;10.63;;;26.70;85.40;;;;;;5044585;28;20071;-54
2023/06/22 09:57:52;;;;;;;66.68;12.55;;;26.70;85.10;;;;;;5046204;28;20044;-53
2023/06/22 10:00:18;;;;;;;58.70;11.80;;;26.80;85.00;;;;;;5048023;28;20099;-54
2023/06/22 10:02:44;;;;;;;50.88;10.77;;;26.80;84.80;;;;;;5046591;28;20387;-54
2023/06/22 10:05:09;;;;;;;62.50;10.82;;;26.90;84.30;;;;;;5057056;28;20036;-54
2023/06/22 10:07:39;;;;;;;44.50;9.48;;;26.90;83.90;;;;;;5066490;28;20021;-54
2023/06/22 10:10:06;;;;;;;34.25;8.80;;;26.90;83.50;;;;;;5068411;28;20044;-54
2023/06/22 10:12:31;;;;;;;152.02;19.50;;;27.00;83.00;;;;;;5066347;28;20105;-53
2023/06/22 10:14:57;;;;;;;62.10;10.68;;;27.00;83.20;;;;;;5064212;28;20049;-54
2023/06/22 10:17:22;;;;;;;39.88;9.48;;;27.00;82.70;;;;;;5052596;28;20444;-54
2023/06/22 10:19:48;;;;;;;76.80;13.50;;;27.00;82.10;;;;;;5047328;28;20048;-54
2023/06/22 10:22:13;;;;;;;66.82;12.13;;;27.10;82.10;;;;;;5046113;28;20093;-53
2023/06/22 10:24:44;;;;;;;61.10;11.80;;;27.10;82.00;;;;;;5048991;28;20025;-54
2023/06/22 10:27:10;;;;;;;54.25;10.82;;;27.10;82.00;;;;;;5066157;28;20033;-54
2023/06/22 10:29:36;;;;;;;92.38;14.85;;;27.20;82.00;;;;;;5045609;28;20513;-54
2023/06/22 10:32:01;;;;;;;77.65;12.55;;;27.20;81.40;;;;;;5060704;28;20036;-54
2023/06/22 10:34:27;;;;;;;51.85;12.00;;;27.20;81.60;;;;;;5066346;28;20044;-52
2023/06/22 10:36:53;;;;;;;97.47;15.52;;;27.20;81.50;;;;;;5049508;28;20032;-54
2023/06/22 10:39:18;;;;;;;66.63;11.48;;;27.30;81.60;;;;;;5065110;28;20035;-55
2023/06/22 10:41:44;;;;;;;39.42;10.00;;;27.30;81.50;;;;;;5065363;28;20040;-54
2023/06/22 10:44:09;;;;;;;29.00;8.88;;;27.30;81.30;;;;;;5029024;28;20090;-53
2023/06/22 10:46:35;;;;;;;42.33;10.40;;;27.40;81.20;;;;;;5043515;28;20056;-53
2023/06/22 10:49:01;;;;;;;67.75;11.88;;;27.40;81.00;;;;;;5046054;28;20153;-54
2023/06/22 10:51:28;;;;;;;78.63;13.18;;;27.40;81.20;;;;;;5047402;28;20029;-54
2023/06/22 10:53:53;;;;;;;78.53;12.73;;;27.50;81.30;;;;;;5036160;28;20028;-54
2023/06/22 10:56:19;;;;;;;29.10;10.63;;;27.50;81.20;;;;;;5050388;28;20083;-53
2023/06/22 10:58:44;;;;;;;43.90;9.77;;;27.60;81.10;;;;;;5049078;28;20025;-55
2023/06/22 11:01:10;;;;;;;27.65;8.00;;;27.60;81.20;;;;;;5064627;28;20021;-54
2023/06/22 11:03:36;;;;;;;33.58;9.13;;;27.70;81.20;;;;;;5065573;28;20029;-54
2023/06/22 11:06:01;;;;;;;50.47;11.55;;;27.70;81.20;;;;;;5056610;28;20112;-54
2023/06/22 11:08:27;;;;;;;32.10;9.38;;;27.80;81.30;;;;;;5046018;28;20450;-53
2023/06/22 11:10:52;;;;;;;25.77;7.80;;;27.80;81.20;;;;;;5050533;28;20028;-54
2023/06/22 11:13:18;;;;;;;20.48;8.02;;;27.80;81.10;;;;;;5066427;28;20343;-54
2023/06/22 11:15:44;;;;;;;31.73;8.30;;;27.80;81.10;;;;;;5059728;28;20025;-54
2023/06/22 11:18:09;;;;;;;39.22;8.10;;;27.80;80.80;;;;;;5044682;28;20052;-54
2023/06/22 11:20:38;;;;;;;36.25;8.88;;;27.90;80.50;;;;;;5045057;28;20029;-54
2023/06/22 11:23:07;;;;;;;33.92;8.88;;;27.90;80.20;;;;;;5045603;28;20033;-54
2023/06/22 11:25:34;;;;;;;34.05;8.88;;;27.90;80.00;;;;;;5046088;28;20450;-54
2023/06/22 11:28:03;;;;;;;29.15;8.70;;;28.00;80.00;;;;;;5045016;28;20037;-54
2023/06/22 11:30:29;;;;;;;53.65;10.00;;;28.00;79.50;;;;;;5042402;28;20028;-54
2023/06/22 11:32:56;;;;;;;38.83;9.35;;;28.00;79.40;;;;;;5046435;28;20033;-54
2023/06/22 11:35:21;;;;;;;35.10;8.15;;;28.10;79.80;;;;;;5055905;28;20037;-54
2023/06/22 11:37:47;;;;;;;39.47;8.30;;;28.10;79.00;;;;;;5044965;28;20049;-53
2023/06/22 11:40:12;;;;;;;52.53;11.85;;;28.20;78.30;;;;;;5046070;28;20029;-54
2023/06/22 11:42:38;;;;;;;53.35;9.98;;;28.20;77.90;;;;;;5058057;28;20052;-54
2023/06/22 11:45:06;;;;;;;44.35;8.88;;;28.30;78.00;;;;;;5044652;28;20081;-54
2023/06/22 11:47:32;;;;;;;41.28;9.10;;;28.40;77.40;;;;;;5061628;28;20029;-53
2023/06/22 11:49:57;;;;;;;31.13;8.18;;;28.40;77.20;;;;;;5064184;28;20028;-54
2023/06/22 11:52:23;;;;;;;64.13;10.52;;;28.40;77.10;;;;;;5044222;28;20056;-51
2023/06/22 11:54:48;;;;;;;41.92;9.57;;;28.40;77.10;;;;;;5046237;28;20026;-54
2023/06/22 11:57:14;;;;;;;57.38;11.77;;;28.50;77.10;;;;;;5059915;28;20093;-54
2023/06/22 11:59:39;;;;;;;53.38;9.82;;;28.50;77.20;;;;;;5064442;28;20028;-54
2023/06/22 12:02:07;;;;;;;44.78;10.45;;;28.50;77.30;;;;;;5047069;28;20056;-53
2023/06/22 12:04:33;;;;;;;63.65;12.02;;;28.60;77.20;;;;;;5048878;28;20033;-54
2023/06/22 12:06:58;;;;;;;44.92;10.23;;;28.60;77.10;;;;;;5056989;28;20052;-54
2023/06/22 12:09:24;;;;;;;51.03;10.15;;;28.70;77.20;;;;;;5060659;28;20032;-54
2023/06/22 12:11:49;;;;;;;41.15;9.30;;;28.70;77.10;;;;;;5027775;28;20374;-54
2023/06/22 12:14:15;;;;;;;56.13;11.45;;;28.70;77.30;;;;;;5046129;28;20029;-54
2023/06/22 12:16:41;;;;;;;60.28;11.73;;;28.80;77.50;;;;;;5048158;28;20029;-54
2023/06/22 12:19:06;;;;;;;64.95;11.00;;;28.80;77.60;;;;;;5046694;28;20067;-54
2023/06/22 12:21:32;;;;;;;63.78;12.70;;;28.80;77.80;;;;;;5046470;28;20025;-54
2023/06/22 12:23:57;;;;;;;64.00;11.55;;;28.90;78.00;;;;;;5051512;28;20133;-54
2023/06/22 12:26:23;;;;;;;52.45;11.88;;;28.90;78.00;;;;;;5056717;28;20049;-54
2023/06/22 12:28:48;;;;;;;68.53;12.65;;;28.90;78.00;;;;;;5041337;28;20442;-54